Time;durP1;ratioP1;P1;durP2;ratioP2;P2;SDS_P1;SDS_P2;PMS_P1;PMS_P2;Temp;Humidity;BMP_temperature;BMP_pressure;BME280_temperature;BME280_humidity;BME280_pressure;Samples;Min_cycle;Max_cycle;Signal;HPM_P1;HPM_P2
2023/03/07 00:00:42;;;;;;;28.05;13.18;;;;;;;;;;7390079;19;20058;-74
2023/03/07 00:03:12;;;;;;;32.63;14.30;;;;;;;;;;7388895;19;20003;-75
2023/03/07 00:05:39;;;;;;;26.65;11.65;;;;;;;;;;7388918;19;20066;-76
2023/03/07 00:08:04;;;;;;;28.60;13.73;;;;;;;;;;7390067;19;20433;-74
2023/03/07 00:10:29;;;;;;;31.00;14.73;;;;;;;;;;7388450;19;20014;-77
2023/03/07 00:12:55;;;;;;;31.00;13.07;;;;;;;;;;7390302;19;20002;-74
2023/03/07 00:15:21;;;;;;;30.45;13.95;;;;;;;;;;7390139;19;20002;-75
2023/03/07 00:17:46;;;;;;;29.48;13.07;;;;;;;;;;7389688;19;20071;-76
2023/03/07 00:20:14;;;;;;;29.88;13.98;;;;;;;;;;7389643;19;20006;-75
2023/03/07 00:22:40;;;;;;;31.67;13.13;;;;;;;;;;7386682;19;20007;-75
2023/03/07 00:25:06;;;;;;;30.65;13.70;;;;;;;;;;7389392;19;20006;-74
2023/03/07 00:27:32;;;;;;;35.67;14.57;;;;;;;;;;7389234;19;20476;-75
2023/03/07 00:29:58;;;;;;;27.17;13.30;;;;;;;;;;7389708;19;20002;-76
2023/03/07 00:32:24;;;;;;;31.85;13.73;;;;;;;;;;7389248;19;20350;-75
2023/03/07 00:34:49;;;;;;;39.33;15.55;;;;;;;;;;7388176;19;20002;-75
2023/03/07 00:37:15;;;;;;;30.15;14.00;;;;;;;;;;7389332;19;20007;-74
2023/03/07 00:39:41;;;;;;;29.60;13.60;;;;;;;;;;7390219;19;20045;-74
2023/03/07 00:42:07;;;;;;;31.15;15.02;;;;;;;;;;7390036;19;20007;-75
2023/03/07 00:44:32;;;;;;;32.35;14.13;;;;;;;;;;7388583;19;20070;-74
2023/03/07 00:46:58;;;;;;;29.45;13.68;;;;;;;;;;7388963;19;20003;-75
2023/03/07 00:49:23;;;;;;;28.02;13.40;;;;;;;;;;7388856;19;20006;-74
2023/03/07 00:51:48;;;;;;;27.13;13.23;;;;;;;;;;7387387;19;20050;-74
2023/03/07 00:54:14;;;;;;;27.75;12.27;;;;;;;;;;7387154;19;20518;-76
2023/03/07 00:56:39;;;;;;;30.75;13.32;;;;;;;;;;7388034;19;19991;-75
2023/03/07 00:59:05;;;;;;;31.77;13.82;;;;;;;;;;7388286;19;20024;-75
2023/03/07 01:01:30;;;;;;;30.85;13.73;;;;;;;;;;7387270;19;20112;-74
2023/03/07 01:03:56;;;;;;;29.58;13.80;;;;;;;;;;7386685;19;20012;-74
2023/03/07 01:06:27;;;;;;;30.25;13.10;;;;;;;;;;7388450;19;20464;-75
2023/03/07 01:08:54;;;;;;;29.27;13.57;;;;;;;;;;7388355;19;20024;-75
2023/03/07 01:11:19;;;;;;;27.67;14.57;;;;;;;;;;7384826;19;20002;-75
2023/03/07 01:13:45;;;;;;;27.92;12.88;;;;;;;;;;7389780;19;20012;-75
2023/03/07 01:16:15;;;;;;;27.00;12.07;;;;;;;;;;7390441;19;20010;-75
2023/03/07 01:18:42;;;;;;;26.33;13.13;;;;;;;;;;7388037;19;20002;-75
2023/03/07 01:21:21;;;;;;;26.65;12.20;;;;;;;;;;7385570;19;20003;-74
2023/03/07 01:23:47;;;;;;;28.95;13.52;;;;;;;;;;7388116;19;20477;-76
2023/03/07 01:26:16;;;;;;;27.13;13.88;;;;;;;;;;7387446;19;20002;-74
2023/03/07 01:28:42;;;;;;;31.05;12.23;;;;;;;;;;7387286;19;20067;-73
2023/03/07 01:31:07;;;;;;;27.98;11.95;;;;;;;;;;7386459;19;20019;-75
2023/03/07 01:33:33;;;;;;;27.58;13.40;;;;;;;;;;7386225;19;20448;-75
2023/03/07 01:35:58;;;;;;;25.33;12.15;;;;;;;;;;7386798;19;20334;-75
2023/03/07 01:38:23;;;;;;;28.23;12.60;;;;;;;;;;7386696;19;20401;-76
2023/03/07 01:40:49;;;;;;;29.15;12.85;;;;;;;;;;7386485;19;20021;-75
2023/03/07 01:43:23;;;;;;;26.50;12.20;;;;;;;;;;7392147;19;20003;-74
2023/03/07 01:45:48;;;;;;;20.45;10.15;;;;;;;;;;7392802;19;20014;-74
2023/03/07 01:48:14;;;;;;;34.15;12.30;;;;;;;;;;7394616;19;19995;-76
2023/03/07 01:50:40;;;;;;;21.90;11.98;;;;;;;;;;7393591;19;20011;-73
2023/03/07 01:53:07;;;;;;;29.67;12.23;;;;;;;;;;7392803;19;20010;-77
2023/03/07 01:55:34;;;;;;;25.25;11.88;;;;;;;;;;7394422;19;20014;-75
2023/03/07 01:58:05;;;;;;;24.55;12.07;;;;;;;;;;7394342;19;20010;-76
2023/03/07 02:00:31;;;;;;;27.17;12.70;;;;;;;;;;7394674;19;20344;-75
2023/03/07 02:03:13;;;;;;;23.77;11.90;;;;;;;;;;7392673;19;20066;-75
2023/03/07 02:05:49;;;;;;;24.27;10.90;;;;;;;;;;7392391;19;20013;-76
2023/03/07 02:08:15;;;;;;;23.70;11.05;;;;;;;;;;7393295;19;20006;-75
2023/03/07 02:10:42;;;;;;;23.90;11.90;;;;;;;;;;7393256;19;20037;-76
2023/03/07 02:13:08;;;;;;;22.77;10.63;;;;;;;;;;7390659;19;20003;-75
2023/03/07 02:15:34;;;;;;;22.77;10.60;;;;;;;;;;7393508;19;20010;-75
2023/03/07 02:18:00;;;;;;;22.02;10.63;;;;;;;;;;7394217;19;20030;-74
2023/03/07 02:20:31;;;;;;;22.38;9.95;;;;;;;;;;7393688;19;20106;-75
2023/03/07 02:22:57;;;;;;;;;;;;;;;;;;7393820;19;20357;-73
2023/03/07 02:25:43;;;;;;;20.00;9.25;;;;;;;;;;7393508;19;19919;-76
2023/03/07 02:28:13;;;;;;;16.92;8.40;;;;;;;;;;7391911;19;20058;-75
2023/03/07 02:30:52;;;;;;;19.90;8.98;;;;;;;;;;7392231;19;20033;-75
2023/03/07 02:33:17;;;;;;;19.10;8.80;;;;;;;;;;7392166;19;20024;-74
2023/03/07 02:35:43;;;;;;;18.45;8.63;;;;;;;;;;7393540;19;20003;-74
2023/03/07 02:38:09;;;;;;;17.98;9.98;;;;;;;;;;7393070;19;20122;-76
2023/03/07 02:40:35;;;;;;;16.67;8.18;;;;;;;;;;7393122;19;19998;-76
2023/03/07 02:43:08;;;;;;;18.15;8.55;;;;;;;;;;7389448;19;19999;-75
2023/03/07 02:45:33;;;;;;;17.45;8.35;;;;;;;;;;7392910;19;20094;-76
2023/03/07 02:47:58;;;;;;;14.85;7.30;;;;;;;;;;7393110;19;19998;-75
2023/03/07 02:50:24;;;;;;;18.55;8.15;;;;;;;;;;7389667;19;20078;-75
2023/03/07 02:52:49;;;;;;;14.43;7.38;;;;;;;;;;7390053;19;20011;-75
2023/03/07 02:55:15;;;;;;;14.65;6.50;;;;;;;;;;7395590;19;20457;-75
2023/03/07 02:57:41;;;;;;;15.65;7.85;;;;;;;;;;7395560;19;20035;-76
2023/03/07 03:00:08;;;;;;;14.60;7.65;;;;;;;;;;7393150;19;20002;-75
2023/03/07 03:02:34;;;;;;;15.00;7.90;;;;;;;;;;7388739;19;19994;-74
2023/03/07 03:04:59;;;;;;;14.02;7.43;;;;;;;;;;7391441;19;20010;-75
2023/03/07 03:07:24;;;;;;;14.65;7.13;;;;;;;;;;7390447;19;20022;-75
2023/03/07 03:09:50;;;;;;;15.77;7.30;;;;;;;;;;7394313;19;20002;-76
2023/03/07 03:12:15;;;;;;;13.10;6.82;;;;;;;;;;7394232;19;20002;-75
2023/03/07 03:14:40;;;;;;;17.45;7.85;;;;;;;;;;7389880;19;19999;-75
2023/03/07 03:17:06;;;;;;;13.80;7.35;;;;;;;;;;7392301;19;19990;-75
2023/03/07 03:19:31;;;;;;;14.00;7.30;;;;;;;;;;7391636;19;20002;-75
2023/03/07 03:21:56;;;;;;;14.50;7.32;;;;;;;;;;7393015;19;20070;-75
2023/03/07 03:24:22;;;;;;;14.27;7.15;;;;;;;;;;7389866;19;19999;-75
2023/03/07 03:26:47;;;;;;;13.80;6.70;;;;;;;;;;7389232;19;19995;-74
2023/03/07 03:29:13;;;;;;;12.95;6.90;;;;;;;;;;7388913;19;19995;-76
2023/03/07 03:31:39;;;;;;;11.35;6.55;;;;;;;;;;7389057;19;20098;-76
2023/03/07 03:34:04;;;;;;;14.50;7.03;;;;;;;;;;7389427;19;20015;-75
2023/03/07 03:36:30;;;;;;;12.93;7.18;;;;;;;;;;7390537;19;19999;-76
2023/03/07 03:38:57;;;;;;;16.42;7.43;;;;;;;;;;7390642;19;20001;-75
2023/03/07 03:41:23;;;;;;;14.57;8.15;;;;;;;;;;7389744;19;20024;-76
2023/03/07 03:43:48;;;;;;;14.77;7.97;;;;;;;;;;7388960;19;19999;-75
2023/03/07 03:46:15;;;;;;;13.35;7.03;;;;;;;;;;7390534;19;20008;-75
2023/03/07 03:48:41;;;;;;;13.80;7.60;;;;;;;;;;7390446;19;19998;-75
2023/03/07 03:51:09;;;;;;;15.18;7.78;;;;;;;;;;7387429;19;20026;-76
2023/03/07 03:53:37;;;;;;;16.67;7.22;;;;;;;;;;7389228;19;19994;-75
2023/03/07 03:56:06;;;;;;;13.75;7.88;;;;;;;;;;7392788;19;20006;-75
2023/03/07 03:58:32;;;;;;;16.50;7.78;;;;;;;;;;7390088;19;20002;-75
2023/03/07 04:01:04;;;;;;;15.27;8.13;;;;;;;;;;7388349;19;20332;-76
2023/03/07 04:03:34;;;;;;;14.07;7.95;;;;;;;;;;7388787;19;19995;-76
2023/03/07 04:06:05;;;;;;;16.98;8.65;;;;;;;;;;7387967;19;20011;-73
2023/03/07 04:08:40;;;;;;;17.77;9.02;;;;;;;;;;7390870;19;20002;-76
2023/03/07 04:11:05;;;;;;;16.40;8.95;;;;;;;;;;7389441;19;20018;-76
2023/03/07 04:13:32;;;;;;;17.50;9.32;;;;;;;;;;7389607;19;20006;-77
2023/03/07 04:15:58;;;;;;;20.20;9.70;;;;;;;;;;7390006;19;20033;-74
2023/03/07 04:18:24;;;;;;;18.25;9.18;;;;;;;;;;7388905;19;19999;-75
2023/03/07 04:20:50;;;;;;;22.20;10.05;;;;;;;;;;7387634;19;20027;-76
2023/03/07 04:23:17;;;;;;;24.85;11.68;;;;;;;;;;7389257;19;20448;-75
2023/03/07 04:25:50;;;;;;;18.67;10.05;;;;;;;;;;7389707;19;20024;-77
2023/03/07 04:28:17;;;;;;;18.90;9.85;;;;;;;;;;7389802;19;20024;-75
2023/03/07 04:30:42;;;;;;;23.65;11.20;;;;;;;;;;7388858;19;20480;-75
2023/03/07 04:33:08;;;;;;;19.23;10.50;;;;;;;;;;7388851;19;20002;-76
2023/03/07 04:35:33;;;;;;;21.02;10.73;;;;;;;;;;7389165;19;20103;-75
2023/03/07 04:37:58;;;;;;;21.65;10.38;;;;;;;;;;7389851;19;20351;-75
2023/03/07 04:40:24;;;;;;;22.88;11.55;;;;;;;;;;7389629;19;20024;-76
2023/03/07 04:42:49;;;;;;;21.15;11.07;;;;;;;;;;7387141;19;19995;-76
2023/03/07 04:45:14;;;;;;;28.48;11.27;;;;;;;;;;7387299;19;20002;-75
2023/03/07 04:47:40;;;;;;;20.02;10.68;;;;;;;;;;7387477;19;19998;-75
2023/03/07 04:50:05;;;;;;;20.23;9.98;;;;;;;;;;7388812;19;20022;-74
2023/03/07 04:52:31;;;;;;;18.70;9.93;;;;;;;;;;7384908;19;20353;-75
2023/03/07 04:54:56;;;;;;;23.13;11.50;;;;;;;;;;7388574;19;19995;-77
2023/03/07 04:57:22;;;;;;;21.05;10.50;;;;;;;;;;7386865;19;20114;-75
2023/03/07 04:59:47;;;;;;;22.08;11.18;;;;;;;;;;7387505;19;20006;-75
2023/03/07 05:02:12;;;;;;;22.75;11.20;;;;;;;;;;7385849;19;20011;-74
2023/03/07 05:04:38;;;;;;;22.50;10.98;;;;;;;;;;7389400;19;19999;-76
2023/03/07 05:07:04;;;;;;;23.50;10.10;;;;;;;;;;7390738;19;19995;-76
2023/03/07 05:09:29;;;;;;;25.40;10.55;;;;;;;;;;7389027;19;20009;-75
2023/03/07 05:11:55;;;;;;;22.23;11.05;;;;;;;;;;7390071;19;20013;-75
2023/03/07 05:14:21;;;;;;;21.17;10.63;;;;;;;;;;7388985;19;20879;-75
2023/03/07 05:16:46;;;;;;;17.13;8.82;;;;;;;;;;7387310;19;20014;-75
2023/03/07 05:19:12;;;;;;;20.00;10.27;;;;;;;;;;7389875;19;20014;-76
2023/03/07 05:21:39;;;;;;;17.80;9.50;;;;;;;;;;7385489;19;19999;-75
2023/03/07 05:24:06;;;;;;;18.90;9.52;;;;;;;;;;7386867;19;20002;-74
2023/03/07 05:26:32;;;;;;;22.55;10.68;;;;;;;;;;7386871;19;19998;-75
2023/03/07 05:28:57;;;;;;;21.85;10.63;;;;;;;;;;7383441;19;20002;-75
2023/03/07 05:31:23;;;;;;;17.17;9.05;;;;;;;;;;7381721;19;20477;-76
2023/03/07 05:33:48;;;;;;;20.95;9.68;;;;;;;;;;7382628;19;20083;-75
2023/03/07 05:36:14;;;;;;;20.75;10.80;;;;;;;;;;7385923;19;20362;-76
2023/03/07 05:38:39;;;;;;;20.05;10.18;;;;;;;;;;7388236;19;20012;-77
2023/03/07 05:41:04;;;;;;;21.98;10.45;;;;;;;;;;7384809;19;20002;-75
2023/03/07 05:43:30;;;;;;;23.83;9.73;;;;;;;;;;7385769;19;20041;-74
2023/03/07 05:45:55;;;;;;;23.23;9.68;;;;;;;;;;7389217;19;20529;-74
2023/03/07 05:48:20;;;;;;;16.75;8.32;;;;;;;;;;7389777;19;20006;-76
2023/03/07 05:50:46;;;;;;;18.48;9.60;;;;;;;;;;7387647;19;20375;-75
2023/03/07 05:53:11;;;;;;;21.23;9.65;;;;;;;;;;7390283;19;20002;-73
2023/03/07 05:55:36;;;;;;;20.38;9.85;;;;;;;;;;7387964;19;19994;-74
2023/03/07 05:58:02;;;;;;;19.52;9.73;;;;;;;;;;7389158;19;20006;-74
2023/03/07 06:00:27;;;;;;;19.77;9.75;;;;;;;;;;7389902;19;20023;-74
2023/03/07 06:02:56;;;;;;;23.40;9.93;;;;;;;;;;7380131;19;20058;-73
2023/03/07 06:05:21;;;;;;;19.98;9.65;;;;;;;;;;7382467;19;20013;-74
2023/03/07 06:07:48;;;;;;;21.60;9.98;;;;;;;;;;7387137;19;20385;-74
2023/03/07 06:10:13;;;;;;;21.50;9.73;;;;;;;;;;7384800;19;20093;-74
2023/03/07 06:12:39;;;;;;;19.27;9.30;;;;;;;;;;7384461;19;20397;-74
2023/03/07 06:15:05;;;;;;;22.70;10.30;;;;;;;;;;7389684;19;20003;-73
2023/03/07 06:17:30;;;;;;;23.63;10.05;;;;;;;;;;7389632;19;20775;-73
2023/03/07 06:19:55;;;;;;;20.15;9.52;;;;;;;;;;7387960;19;19999;-76
2023/03/07 06:22:21;;;;;;;17.17;9.55;;;;;;;;;;7387325;19;20045;-75
2023/03/07 06:24:46;;;;;;;19.42;9.70;;;;;;;;;;7388358;19;20469;-75
2023/03/07 06:27:11;;;;;;;17.98;8.85;;;;;;;;;;7389527;19;20337;-73
2023/03/07 06:29:37;;;;;;;20.70;9.38;;;;;;;;;;7394301;19;20042;-74
2023/03/07 06:32:03;;;;;;;18.30;9.60;;;;;;;;;;7392700;19;19995;-74
2023/03/07 06:34:28;;;;;;;16.55;8.52;;;;;;;;;;7394274;19;20002;-72
2023/03/07 06:36:53;;;;;;;23.60;9.43;;;;;;;;;;7392330;19;20002;-73
2023/03/07 06:39:20;;;;;;;20.40;10.05;;;;;;;;;;7395722;19;20023;-75
2023/03/07 06:41:49;;;;;;;22.65;10.07;;;;;;;;;;7395222;19;20022;-74
2023/03/07 06:44:15;;;;;;;19.73;9.85;;;;;;;;;;7392762;19;20345;-75
2023/03/07 06:46:42;;;;;;;17.45;8.48;;;;;;;;;;7392668;19;20007;-74
2023/03/07 06:49:07;;;;;;;20.38;9.45;;;;;;;;;;7395089;19;20024;-72
2023/03/07 06:51:32;;;;;;;19.77;9.02;;;;;;;;;;7393211;19;20481;-73
2023/03/07 06:53:57;;;;;;;16.25;8.40;;;;;;;;;;7391902;19;19995;-75
2023/03/07 06:56:24;;;;;;;18.00;8.95;;;;;;;;;;7393420;19;19999;-73
2023/03/07 06:58:49;;;;;;;18.45;9.07;;;;;;;;;;7394103;19;20006;-73
2023/03/07 07:01:19;;;;;;;17.73;8.75;;;;;;;;;;7393958;19;20511;-73
2023/03/07 07:03:44;;;;;;;17.35;8.65;;;;;;;;;;7395164;19;19998;-73
2023/03/07 07:06:10;;;;;;;15.95;8.98;;;;;;;;;;7396372;19;20010;-76
2023/03/07 07:08:35;;;;;;;16.58;8.30;;;;;;;;;;7392943;19;20011;-75
2023/03/07 07:13:28;;;;;;;20.48;9.25;;;;;;;;;;7394132;19;20011;-77
2023/03/07 07:15:53;;;;;;;19.23;8.55;;;;;;;;;;7396715;19;20029;-76
2023/03/07 07:18:19;;;;;;;19.48;8.77;;;;;;;;;;7396634;19;19995;-76
2023/03/07 07:20:44;;;;;;;21.15;9.40;;;;;;;;;;7399623;19;20418;-78
2023/03/07 07:23:09;;;;;;;18.35;8.73;;;;;;;;;;7399695;19;19995;-77
2023/03/07 07:25:37;;;;;;;17.30;7.93;;;;;;;;;;7400413;19;20014;-79
2023/03/07 07:28:02;;;;;;;19.30;8.85;;;;;;;;;;7397969;19;20523;-79
2023/03/07 07:30:27;;;;;;;16.02;8.65;;;;;;;;;;7395086;19;20006;-76
2023/03/07 07:32:53;;;;;;;20.23;9.40;;;;;;;;;;7390264;19;19987;-77
2023/03/07 07:35:18;;;;;;;18.60;9.10;;;;;;;;;;7390433;19;19990;-78
2023/03/07 07:37:43;;;;;;;17.55;8.93;;;;;;;;;;7393062;19;19990;-79
2023/03/07 07:40:09;;;;;;;15.68;8.05;;;;;;;;;;7395320;19;20377;-77
2023/03/07 07:42:35;;;;;;;17.92;8.70;;;;;;;;;;7393429;19;20309;-77
2023/03/07 07:45:00;;;;;;;18.63;8.45;;;;;;;;;;7394566;19;20350;-77
2023/03/07 07:47:26;;;;;;;15.38;7.85;;;;;;;;;;7395899;19;20003;-78
2023/03/07 07:49:51;;;;;;;15.85;7.35;;;;;;;;;;7397085;19;19991;-78
2023/03/07 07:52:16;;;;;;;17.75;8.68;;;;;;;;;;7392870;19;20001;-78
2023/03/07 07:54:42;;;;;;;16.05;8.20;;;;;;;;;;7396227;19;20006;-77
2023/03/07 07:57:10;;;;;;;18.67;9.27;;;;;;;;;;7388378;19;20578;-77
2023/03/07 07:59:35;;;;;;;14.57;8.30;;;;;;;;;;7395453;19;20006;-77
2023/03/07 08:02:00;;;;;;;16.70;7.22;;;;;;;;;;7395359;19;19998;-76
2023/03/07 08:04:26;;;;;;;15.35;8.02;;;;;;;;;;7393097;19;20358;-76
2023/03/07 08:06:52;;;;;;;13.43;7.68;;;;;;;;;;7394637;19;20014;-76
2023/03/07 08:09:17;;;;;;;14.30;8.02;;;;;;;;;;7396427;19;20031;-77
2023/03/07 08:11:43;;;;;;;9.48;5.90;;;;;;;;;;7394947;19;20038;-77
2023/03/07 08:14:08;;;;;;;15.00;7.72;;;;;;;;;;7392067;19;20002;-76
2023/03/07 08:16:34;;;;;;;13.98;7.82;;;;;;;;;;7393414;19;20301;-77
2023/03/07 08:19:00;;;;;;;14.98;7.65;;;;;;;;;;7394236;19;20021;-77
2023/03/07 08:21:26;;;;;;;14.23;8.10;;;;;;;;;;7395088;19;19999;-76
2023/03/07 08:23:55;;;;;;;14.95;7.38;;;;;;;;;;7393996;19;20007;-77
2023/03/07 08:26:21;;;;;;;14.82;8.07;;;;;;;;;;7393349;19;20126;-77
2023/03/07 08:28:46;;;;;;;12.88;7.00;;;;;;;;;;7395578;19;20002;-77
2023/03/07 08:31:16;;;;;;;14.88;7.53;;;;;;;;;;7395168;19;19999;-77
2023/03/07 08:33:42;;;;;;;15.23;7.82;;;;;;;;;;7396216;19;20069;-77
2023/03/07 08:36:08;;;;;;;17.80;8.07;;;;;;;;;;7392926;19;20448;-77
2023/03/07 08:38:34;;;;;;;16.30;7.80;;;;;;;;;;7392588;19;19998;-77
2023/03/07 08:41:03;;;;;;;13.77;7.10;;;;;;;;;;7395612;19;20002;-77
2023/03/07 08:43:30;;;;;;;10.38;5.78;;;;;;;;;;7390679;19;20010;-78
2023/03/07 08:45:56;;;;;;;15.57;7.47;;;;;;;;;;7394259;19;19998;-78
2023/03/07 08:48:22;;;;;;;12.30;6.32;;;;;;;;;;7390774;19;20010;-78
2023/03/07 08:50:48;;;;;;;12.68;7.20;;;;;;;;;;7388283;19;19994;-78
2023/03/07 08:53:14;;;;;;;13.80;7.25;;;;;;;;;;7385605;19;20011;-78
2023/03/07 08:55:40;;;;;;;12.95;7.10;;;;;;;;;;7387606;19;20026;-79
2023/03/07 08:58:06;;;;;;;12.65;6.75;;;;;;;;;;7391821;19;19998;-78
2023/03/07 09:00:31;;;;;;;13.27;6.95;;;;;;;;;;7390734;19;20020;-78
2023/03/07 09:03:00;;;;;;;14.85;7.53;;;;;;;;;;7392161;19;20002;-78
2023/03/07 09:05:26;;;;;;;12.32;6.65;;;;;;;;;;7395340;19;20002;-78
2023/03/07 09:07:52;;;;;;;13.20;7.32;;;;;;;;;;7392972;19;20460;-78
2023/03/07 09:10:19;;;;;;;15.40;6.95;;;;;;;;;;7392423;19;20005;-78
2023/03/07 09:12:45;;;;;;;11.43;5.78;;;;;;;;;;7389123;19;20010;-77
2023/03/07 09:15:11;;;;;;;12.15;6.13;;;;;;;;;;7390848;19;20002;-77
2023/03/07 09:17:36;;;;;;;11.73;7.15;;;;;;;;;;7390167;19;19999;-77
2023/03/07 09:20:03;;;;;;;12.77;6.47;;;;;;;;;;7390614;19;20039;-77
2023/03/07 09:22:28;;;;;;;15.38;7.15;;;;;;;;;;7388603;19;20007;-77
2023/03/07 09:24:53;;;;;;;12.75;6.18;;;;;;;;;;7388434;19;20002;-77
2023/03/07 09:27:19;;;;;;;14.32;6.50;;;;;;;;;;7388425;19;20003;-77
2023/03/07 09:29:46;;;;;;;11.82;5.88;;;;;;;;;;7391138;19;19999;-76
2023/03/07 09:32:11;;;;;;;13.20;6.93;;;;;;;;;;7391496;19;20367;-77
2023/03/07 09:34:37;;;;;;;12.27;6.38;;;;;;;;;;7394013;19;19999;-76
2023/03/07 09:37:02;;;;;;;12.80;7.22;;;;;;;;;;7394203;19;19999;-79
2023/03/07 09:39:27;;;;;;;11.90;6.50;;;;;;;;;;7395732;19;20090;-76
2023/03/07 09:41:55;;;;;;;10.70;6.40;;;;;;;;;;7393234;19;20013;-77
2023/03/07 09:44:35;;;;;;;13.70;6.70;;;;;;;;;;7394467;19;19999;-79
2023/03/07 09:47:36;;;;;;;12.27;6.90;;;;;;;;;;7396537;19;20006;-77
2023/03/07 09:50:08;;;;;;;9.82;5.07;;;;;;;;;;7399240;19;20004;-78
2023/03/07 09:52:38;;;;;;;11.82;6.88;;;;;;;;;;7395531;19;20024;-78
2023/03/07 09:55:10;;;;;;;14.63;6.40;;;;;;;;;;7395076;19;20003;-77
2023/03/07 09:57:50;;;;;;;11.65;7.07;;;;;;;;;;7389070;19;20002;-76
2023/03/07 10:00:25;;;;;;;15.50;6.27;;;;;;;;;;7389771;19;20019;-76
2023/03/07 10:02:56;;;;;;;13.13;6.22;;;;;;;;;;7388094;19;20026;-77
2023/03/07 10:05:35;;;;;;;13.80;6.82;;;;;;;;;;7396411;19;20082;-76
2023/03/07 10:08:01;;;;;;;11.60;6.25;;;;;;;;;;7395350;19;20341;-75
2023/03/07 10:10:38;;;;;;;13.38;6.38;;;;;;;;;;7397245;19;20388;-77
2023/03/07 10:13:38;;;;;;;13.30;6.38;;;;;;;;;;7395965;19;19995;-77
2023/03/07 10:16:23;;;;;;;11.48;5.68;;;;;;;;;;7398170;19;20549;-77
2023/03/07 10:19:20;;;;;;;15.13;6.57;;;;;;;;;;7399503;19;20300;-77
2023/03/07 10:22:04;;;;;;;12.23;6.20;;;;;;;;;;7398651;19;20005;-77
2023/03/07 10:24:42;;;;;;;11.38;5.68;;;;;;;;;;7404760;19;20010;-78
2023/03/07 10:27:11;;;;;;;10.95;5.75;;;;;;;;;;7412942;19;19995;-78
2023/03/07 10:29:58;;;;;;;11.07;5.95;;;;;;;;;;7404837;19;20477;-77
2023/03/07 10:32:38;;;;;;;10.52;5.80;;;;;;;;;;7392292;19;20400;-77
2023/03/07 10:35:15;;;;;;;12.73;5.95;;;;;;;;;;7399330;19;20196;-77
2023/03/07 10:37:49;;;;;;;11.35;5.40;;;;;;;;;;7394145;19;19995;-76
2023/03/07 10:40:20;;;;;;;9.40;4.50;;;;;;;;;;7396556;19;20012;-76
2023/03/07 10:42:45;;;;;;;10.70;5.72;;;;;;;;;;7394505;19;20002;-75
2023/03/07 10:45:13;;;;;;;10.45;5.95;;;;;;;;;;7397415;19;20010;-78
2023/03/07 10:47:39;;;;;;;11.43;5.72;;;;;;;;;;7394303;19;20460;-76
2023/03/07 10:50:25;;;;;;;13.15;5.50;;;;;;;;;;7398233;19;20001;-77
2023/03/07 10:52:54;;;;;;;9.63;5.43;;;;;;;;;;7394085;19;20002;-77
2023/03/07 10:55:38;;;;;;;12.98;6.22;;;;;;;;;;7394363;19;19998;-77
2023/03/07 10:58:24;;;;;;;9.52;5.65;;;;;;;;;;7395154;19;20002;-77
2023/03/07 11:01:00;;;;;;;9.52;5.07;;;;;;;;;;7396330;19;20011;-76
2023/03/07 11:03:37;;;;;;;10.57;5.57;;;;;;;;;;7392920;19;20370;-77
2023/03/07 11:06:03;;;;;;;10.23;5.45;;;;;;;;;;7394458;19;20013;-78
2023/03/07 11:08:33;;;;;;;10.43;5.97;;;;;;;;;;7397115;19;20051;-77
2023/03/07 11:11:00;;;;;;;9.70;5.78;;;;;;;;;;7372300;19;20010;-77
2023/03/07 11:13:27;;;;;;;10.88;5.05;;;;;;;;;;7391254;19;20062;-77
2023/03/07 11:16:27;;;;;;;9.48;5.75;;;;;;;;;;7390527;19;19999;-76
2023/03/07 11:18:53;;;;;;;10.15;5.43;;;;;;;;;;7388854;19;20369;-77
2023/03/07 11:21:30;;;;;;;11.05;5.65;;;;;;;;;;7388158;19;20019;-78
2023/03/07 11:24:24;;;;;;;11.00;5.07;;;;;;;;;;7388768;19;19998;-76
2023/03/07 11:26:55;;;;;;;10.50;5.00;;;;;;;;;;7390804;19;20444;-76
2023/03/07 11:29:20;;;;;;;9.55;5.32;;;;;;;;;;7387497;19;20008;-76
2023/03/07 11:32:03;;;;;;;8.77;4.53;;;;;;;;;;7385663;19;20062;-76
2023/03/07 11:34:34;;;;;;;9.23;5.18;;;;;;;;;;7395506;19;20023;-76
2023/03/07 11:37:15;;;;;;;11.38;5.05;;;;;;;;;;7394195;19;20025;-76
2023/03/07 11:40:06;;;;;;;9.90;5.07;;;;;;;;;;7393373;19;20250;-77
2023/03/07 11:42:42;;;;;;;8.73;4.57;;;;;;;;;;7391049;19;20024;-77
2023/03/07 11:45:34;;;;;;;10.38;4.85;;;;;;;;;;7395753;19;20076;-78
2023/03/07 11:48:11;;;;;;;9.27;5.05;;;;;;;;;;7392737;19;19998;-77
2023/03/07 11:50:39;;;;;;;10.40;5.18;;;;;;;;;;7392650;19;20013;-78
2023/03/07 11:53:04;;;;;;;10.77;5.43;;;;;;;;;;7392584;19;20009;-76
2023/03/07 11:55:48;;;;;;;10.43;4.53;;;;;;;;;;7391252;19;20003;-78
2023/03/07 11:58:21;;;;;;;12.13;5.68;;;;;;;;;;7391469;19;20030;-78
2023/03/07 12:01:41;;;;;;;14.00;5.53;;;;;;;;;;7391033;19;20010;-77
2023/03/07 12:04:25;;;;;;;10.00;5.43;;;;;;;;;;7388319;19;20003;-77
2023/03/07 12:07:02;;;;;;;10.27;4.93;;;;;;;;;;7393411;19;19994;-76
2023/03/07 12:09:50;;;;;;;18.02;5.10;;;;;;;;;;7392469;19;19998;-80
2023/03/07 12:12:35;;;;;;;10.95;4.97;;;;;;;;;;7393275;19;20010;-76
2023/03/07 12:15:18;;;;;;;10.43;4.60;;;;;;;;;;7402167;19;20006;-77
2023/03/07 12:18:05;;;;;;;11.70;5.00;;;;;;;;;;7393447;19;20057;-76
2023/03/07 12:20:49;;;;;;;7.80;4.97;;;;;;;;;;7394563;19;20002;-77
2023/03/07 12:23:21;;;;;;;8.23;4.90;;;;;;;;;;7391248;19;20460;-77
2023/03/07 12:25:54;;;;;;;13.02;5.00;;;;;;;;;;7393457;19;20015;-78
2023/03/07 12:28:20;;;;;;;9.68;5.32;;;;;;;;;;7395689;19;19998;-76
2023/03/07 12:30:59;;;;;;;9.45;5.13;;;;;;;;;;7393198;19;20002;-76
2023/03/07 12:33:46;;;;;;;11.05;5.05;;;;;;;;;;7390309;19;20050;-77
2023/03/07 12:36:28;;;;;;;14.63;5.78;;;;;;;;;;7391868;19;20019;-77
2023/03/07 12:39:16;;;;;;;8.75;5.22;;;;;;;;;;7393981;19;20019;-75
2023/03/07 12:42:23;;;;;;;12.85;5.25;;;;;;;;;;7390436;19;20477;-75
2023/03/07 12:44:53;;;;;;;9.88;5.40;;;;;;;;;;7387987;19;20073;-77
2023/03/07 12:47:27;;;;;;;11.60;5.20;;;;;;;;;;7386611;19;19999;-76
2023/03/07 12:50:05;;;;;;;8.98;5.30;;;;;;;;;;7389817;19;20765;-76
2023/03/07 12:52:47;;;;;;;10.68;4.90;;;;;;;;;;7390595;19;20002;-77
2023/03/07 12:55:37;;;;;;;14.10;5.57;;;;;;;;;;7394172;19;20032;-78
2023/03/07 12:58:12;;;;;;;10.57;5.50;;;;;;;;;;7393862;19;20019;-77
2023/03/07 13:00:42;;;;;;;9.48;5.45;;;;;;;;;;7391115;19;20462;-77
2023/03/07 13:03:13;;;;;;;10.97;5.43;;;;;;;;;;7391511;19;20003;-77
2023/03/07 13:05:39;;;;;;;10.43;4.65;;;;;;;;;;7391281;19;20291;-77
2023/03/07 13:08:06;;;;;;;10.82;5.35;;;;;;;;;;7391104;19;20006;-76
2023/03/07 13:10:32;;;;;;;9.68;4.85;;;;;;;;;;7392634;19;20397;-78
2023/03/07 13:12:57;;;;;;;13.57;5.90;;;;;;;;;;7391054;19;19999;-76
2023/03/07 13:15:24;;;;;;;13.85;5.50;;;;;;;;;;7390584;19;20817;-76
2023/03/07 13:17:49;;;;;;;10.55;5.22;;;;;;;;;;7391582;19;20011;-76
2023/03/07 13:20:17;;;;;;;11.77;5.27;;;;;;;;;;7391525;19;20097;-76
2023/03/07 13:22:43;;;;;;;15.15;5.38;;;;;;;;;;7391301;19;20825;-78
2023/03/07 13:25:34;;;;;;;11.00;5.60;;;;;;;;;;7393498;19;20009;-78
2023/03/07 13:28:01;;;;;;;10.25;5.72;;;;;;;;;;7391449;19;20027;-81
2023/03/07 13:30:28;;;;;;;10.30;5.63;;;;;;;;;;7392568;19;20013;-79
2023/03/07 13:33:02;;;;;;;14.50;6.18;;;;;;;;;;7391765;19;20006;-79
2023/03/07 13:35:27;;;;;;;11.77;6.35;;;;;;;;;;7390982;19;20456;-81
2023/03/07 13:38:14;;;;;;;15.35;6.30;;;;;;;;;;7391378;19;20031;-80
2023/03/07 13:40:45;;;;;;;12.48;6.43;;;;;;;;;;7398659;19;20006;-80
2023/03/07 13:43:23;;;;;;;11.38;6.15;;;;;;;;;;7397120;19;20003;-79
2023/03/07 13:45:58;;;;;;;12.60;6.25;;;;;;;;;;7398607;19;20027;-78
2023/03/07 13:48:23;;;;;;;11.55;5.78;;;;;;;;;;7399621;19;20003;-80
2023/03/07 13:50:51;;;;;;;9.63;5.50;;;;;;;;;;7398342;19;20006;-79
2023/03/07 13:53:43;;;;;;;15.70;7.10;;;;;;;;;;7393828;19;20003;-77
2023/03/07 13:56:16;;;;;;;12.23;6.60;;;;;;;;;;7404175;19;20007;-80
2023/03/07 13:59:01;;;;;;;13.45;6.60;;;;;;;;;;7402127;19;20078;-78
2023/03/07 14:01:39;;;;;;;14.20;6.53;;;;;;;;;;7394905;19;20002;-79
2023/03/07 14:04:23;;;;;;;14.80;6.35;;;;;;;;;;7396432;19;20002;-80
2023/03/07 14:07:11;;;;;;;12.48;6.25;;;;;;;;;;7398209;19;20534;-80
2023/03/07 14:09:46;;;;;;;11.67;6.27;;;;;;;;;;7344446;19;1005365;-78
2023/03/07 14:12:40;;;;;;;11.60;5.97;;;;;;;;;;7394724;19;20030;-77
2023/03/07 14:15:40;;;;;;;15.02;6.07;;;;;;;;;;7397498;19;20006;-78
2023/03/07 14:18:27;;;;;;;13.90;6.05;;;;;;;;;;7395618;19;20050;-78
2023/03/07 14:21:18;;;;;;;12.88;6.20;;;;;;;;;;7396713;19;20002;-77
2023/03/07 14:24:05;;;;;;;10.68;5.43;;;;;;;;;;7393726;19;20031;-78
2023/03/07 14:26:33;;;;;;;11.23;5.97;;;;;;;;;;7397024;19;20325;-78
2023/03/07 14:29:01;;;;;;;11.68;5.63;;;;;;;;;;7395088;19;20015;-80
2023/03/07 14:31:30;;;;;;;11.95;5.80;;;;;;;;;;7392715;19;20002;-80
2023/03/07 14:33:56;;;;;;;10.55;5.35;;;;;;;;;;7394312;19;20023;-79
2023/03/07 14:36:24;;;;;;;10.02;4.78;;;;;;;;;;7394902;19;20006;-80
2023/03/07 14:38:53;;;;;;;8.48;4.10;;;;;;;;;;7396613;19;20018;-78
2023/03/07 14:41:35;;;;;;;14.68;4.97;;;;;;;;;;7392537;19;20013;-78
2023/03/07 14:44:34;;;;;;;7.65;3.80;;;;;;;;;;7396361;19;20036;-77
2023/03/07 14:47:33;;;;;;;10.95;5.55;;;;;;;;;;7394291;19;20010;-78